createdAt,value
2023-10-30T00:00:53.320Z,16.67
2023-10-30T00:03:40.250Z,12.95
2023-10-30T00:06:26.035Z,12.23
2023-10-30T00:09:12.326Z,12.40
2023-10-30T00:11:58.791Z,11.85
2023-10-30T00:14:44.864Z,9.30
2023-10-30T00:17:34.041Z,11.38
2023-10-30T00:20:20.188Z,11.50
2023-10-30T00:23:06.235Z,8.93
2023-10-30T00:25:53.034Z,13.60
2023-10-30T00:28:38.902Z,9.65
2023-10-30T00:31:25.240Z,9.20
2023-10-30T00:34:13.219Z,8.80
2023-10-30T00:36:59.108Z,8.98
2023-10-30T00:39:44.894Z,8.65
2023-10-30T00:42:30.798Z,9.93
2023-10-30T00:45:18.341Z,9.05
2023-10-30T00:48:04.505Z,9.05
2023-10-30T00:50:50.362Z,9.10
2023-10-30T00:53:36.275Z,7.88
2023-10-30T00:56:22.091Z,7.78
2023-10-30T00:59:08.408Z,8.63
2023-10-30T01:01:54.842Z,9.45
2023-10-30T01:04:41.170Z,9.32
2023-10-30T01:07:27.368Z,8.27
2023-10-30T01:10:13.443Z,9.07
2023-10-30T01:12:59.139Z,10.35
2023-10-30T01:15:45.041Z,10.32
2023-10-30T01:18:31.407Z,8.50
2023-10-30T01:21:18.615Z,9.50
2023-10-30T01:24:06.525Z,9.95
2023-10-30T01:26:52.885Z,11.32
2023-10-30T01:29:38.455Z,10.40
2023-10-30T01:32:24.334Z,10.18
2023-10-30T01:35:10.056Z,11.52
2023-10-30T01:37:56.248Z,8.20
2023-10-30T01:40:49.361Z,8.40
2023-10-30T01:43:35.478Z,8.77
2023-10-30T01:46:21.266Z,12.18
2023-10-30T01:49:07.026Z,10.52
2023-10-30T01:51:52.523Z,10.35
2023-10-30T01:54:39.132Z,7.38
2023-10-30T01:57:28.475Z,9.93
2023-10-30T02:00:16.059Z,8.90
2023-10-30T02:03:01.926Z,8.82
2023-10-30T02:05:48.163Z,9.05
2023-10-30T02:08:33.662Z,8.75
2023-10-30T02:11:19.712Z,6.93
2023-10-30T02:14:05.808Z,7.15
2023-10-30T02:16:52.426Z,7.03
2023-10-30T02:19:38.283Z,6.50
2023-10-30T02:22:23.956Z,6.63
2023-10-30T02:25:10.061Z,5.50
2023-10-30T02:27:55.994Z,5.88
2023-10-30T02:30:41.726Z,5.35
2023-10-30T02:33:27.808Z,5.07
2023-10-30T02:36:13.802Z,6.45
2023-10-30T02:39:00.196Z,9.32
2023-10-30T02:41:45.812Z,6.97
2023-10-30T02:44:31.948Z,6.80
2023-10-30T02:47:17.939Z,6.20
2023-10-30T02:50:04.724Z,6.57
2023-10-30T02:52:51.569Z,5.75
2023-10-30T02:55:37.924Z,5.03
2023-10-30T02:58:23.659Z,4.80
2023-10-30T03:01:09.513Z,8.55
2023-10-30T03:03:55.297Z,7.95
2023-10-30T03:06:41.940Z,7.63
2023-10-30T03:09:29.698Z,6.15
2023-10-30T03:12:15.485Z,10.57
2023-10-30T03:15:01.113Z,9.98
2023-10-30T03:17:47.551Z,4.28
2023-10-30T03:20:33.512Z,6.80
2023-10-30T03:23:21.368Z,6.30
2023-10-30T03:26:07.705Z,7.75
2023-10-30T03:28:53.502Z,6.32
2023-10-30T03:31:39.117Z,4.95
2023-10-30T03:34:25.271Z,4.75
2023-10-30T03:37:12.435Z,6.78
2023-10-30T03:39:59.712Z,7.05
2023-10-30T03:42:46.388Z,6.35
2023-10-30T03:45:32.239Z,6.28
2023-10-30T03:48:18.242Z,6.88
2023-10-30T03:51:05.258Z,5.88
2023-10-30T03:53:50.654Z,7.03
2023-10-30T03:56:36.842Z,6.40
2023-10-30T03:59:22.721Z,9.20
2023-10-30T04:02:09.000Z,7.00
2023-10-30T04:04:55.715Z,5.72
2023-10-30T04:07:41.804Z,10.10
2023-10-30T04:10:27.525Z,8.10
2023-10-30T04:13:13.394Z,9.68
2023-10-30T04:15:59.454Z,6.85
2023-10-30T04:18:45.753Z,8.38
2023-10-30T04:21:31.986Z,5.72
2023-10-30T04:24:18.151Z,9.35
2023-10-30T04:27:04.504Z,7.32
2023-10-30T04:29:50.472Z,7.63
2023-10-30T04:32:36.492Z,7.50
2023-10-30T04:35:22.612Z,6.93
2023-10-30T04:38:08.291Z,12.43
2023-10-30T04:40:54.655Z,5.25
2023-10-30T04:43:40.349Z,5.93
2023-10-30T04:46:26.532Z,5.03
2023-10-30T04:49:12.363Z,7.55
2023-10-30T04:51:58.218Z,6.90
2023-10-30T04:54:43.768Z,5.90
2023-10-30T04:57:29.799Z,8.10
2023-10-30T05:00:16.088Z,7.18
2023-10-30T05:03:01.905Z,8.57
2023-10-30T05:05:48.533Z,6.50
2023-10-30T05:08:36.617Z,7.53
2023-10-30T05:11:22.237Z,5.80
2023-10-30T05:14:08.625Z,7.32
2023-10-30T05:16:55.130Z,6.70
2023-10-30T05:19:41.273Z,6.30
2023-10-30T05:22:28.780Z,5.38
2023-10-30T05:25:14.776Z,6.20
2023-10-30T05:28:01.408Z,6.80
2023-10-30T05:30:49.472Z,6.28
2023-10-30T05:33:35.685Z,6.72
2023-10-30T05:36:22.037Z,5.97
2023-10-30T05:39:07.863Z,6.63
2023-10-30T05:41:53.597Z,7.97
2023-10-30T05:44:39.364Z,6.57
2023-10-30T05:47:25.801Z,7.00
2023-10-30T05:50:11.815Z,8.93
2023-10-30T05:52:57.713Z,8.45
2023-10-30T05:55:43.918Z,6.15
2023-10-30T05:58:29.934Z,13.23
2023-10-30T06:01:15.663Z,11.15
2023-10-30T06:04:02.202Z,38.75
2023-10-30T06:06:48.737Z,16.83
2023-10-30T06:09:36.058Z,14.75
2023-10-30T06:12:22.006Z,33.47
2023-10-30T06:15:08.998Z,82.50
2023-10-30T06:17:55.226Z,114.78
2023-10-30T06:20:41.560Z,119.40
2023-10-30T06:23:27.535Z,80.07
2023-10-30T06:26:17.713Z,60.70
2023-10-30T06:29:03.635Z,40.72
2023-10-30T06:31:49.480Z,61.35
2023-10-30T06:34:35.281Z,36.55
2023-10-30T06:37:21.175Z,24.25
2023-10-30T06:40:07.597Z,26.08
2023-10-30T06:42:53.957Z,27.23
2023-10-30T06:45:39.898Z,27.58
2023-10-30T06:48:25.680Z,26.05
2023-10-30T06:51:11.587Z,27.67
2023-10-30T06:53:57.448Z,43.88
2023-10-30T06:56:43.662Z,34.92
2023-10-30T06:59:29.462Z,83.10
2023-10-30T07:02:15.547Z,79.40
2023-10-30T07:05:01.722Z,183.85
2023-10-30T07:07:47.639Z,183.10
2023-10-30T07:10:33.643Z,72.57
2023-10-30T07:13:19.180Z,63.25
2023-10-30T07:16:06.301Z,55.92
2023-10-30T07:18:52.383Z,64.47
2023-10-30T07:21:41.092Z,59.38
2023-10-30T07:24:28.218Z,48.50
2023-10-30T07:27:15.942Z,57.05
2023-10-30T07:30:04.644Z,33.67
2023-10-30T07:32:51.404Z,49.72
2023-10-30T07:35:37.086Z,18.05
2023-10-30T07:38:23.283Z,31.23
2023-10-30T07:41:11.976Z,13.50
2023-10-30T07:43:58.551Z,26.88
2023-10-30T07:46:44.284Z,21.42
2023-10-30T07:49:30.699Z,29.63
2023-10-30T07:52:16.290Z,24.20
2023-10-30T07:55:06.222Z,17.15
2023-10-30T07:57:51.841Z,15.07
2023-10-30T08:00:54.942Z,9.40
2023-10-30T08:03:43.533Z,14.35
2023-10-30T08:06:29.887Z,13.95
2023-10-30T08:09:17.418Z,10.35
2023-10-30T08:12:03.864Z,10.57
2023-10-30T08:14:49.593Z,7.43
2023-10-30T08:17:35.881Z,9.13
2023-10-30T08:20:21.954Z,7.13
2023-10-30T08:23:07.988Z,7.70
2023-10-30T08:25:54.108Z,8.90
2023-10-30T08:28:45.943Z,8.07
2023-10-30T08:31:32.299Z,6.78
2023-10-30T08:34:18.756Z,6.57
2023-10-30T08:37:04.672Z,6.13
2023-10-30T08:39:50.772Z,6.97
2023-10-30T08:42:36.711Z,8.63
2023-10-30T08:45:23.575Z,8.48
2023-10-30T08:48:18.656Z,6.68
2023-10-30T08:51:06.047Z,4.90
2023-10-30T08:53:52.461Z,6.35
2023-10-30T08:56:39.901Z,4.70
2023-10-30T08:59:25.705Z,6.82
2023-10-30T09:02:11.658Z,7.57
2023-10-30T09:04:57.303Z,5.32
2023-10-30T09:07:44.347Z,4.90
2023-10-30T09:10:33.646Z,4.03
2023-10-30T09:13:19.581Z,5.10
2023-10-30T09:16:06.357Z,5.53
2023-10-30T09:18:53.969Z,4.15
2023-10-30T09:21:39.752Z,6.18
2023-10-30T09:24:27.869Z,6.13
2023-10-30T09:27:13.719Z,3.47
2023-10-30T09:29:59.948Z,6.60
2023-10-30T09:32:46.272Z,6.28
2023-10-30T09:35:33.336Z,5.80
2023-10-30T09:38:19.301Z,6.20
2023-10-30T09:41:08.426Z,5.72
2023-10-30T09:43:55.051Z,7.10
2023-10-30T09:46:41.821Z,7.28
2023-10-30T09:49:29.605Z,5.43
2023-10-30T09:52:16.977Z,5.35
2023-10-30T09:55:06.267Z,7.40
2023-10-30T09:57:53.054Z,8.35
2023-10-30T10:00:39.176Z,10.82
2023-10-30T10:03:25.573Z,8.07
2023-10-30T10:06:11.500Z,10.27
2023-10-30T10:08:57.644Z,5.60
2023-10-30T10:11:44.237Z,5.22
2023-10-30T10:14:33.348Z,5.80
2023-10-30T10:17:19.302Z,5.85
2023-10-30T10:20:05.634Z,4.00
2023-10-30T10:22:51.241Z,4.32
2023-10-30T10:25:37.052Z,9.68
2023-10-30T10:28:27.001Z,5.55
2023-10-30T10:31:13.071Z,4.20
2023-10-30T10:33:59.198Z,7.00
2023-10-30T10:36:47.344Z,7.20
2023-10-30T10:39:53.326Z,4.32
2023-10-30T10:42:40.986Z,6.40
2023-10-30T10:45:26.944Z,4.45
2023-10-30T10:48:13.289Z,5.88
2023-10-30T10:51:02.021Z,4.40
2023-10-30T10:53:50.259Z,5.60
2023-10-30T10:56:38.921Z,6.93
2023-10-30T10:59:27.809Z,7.40
2023-10-30T11:02:21.905Z,6.07
2023-10-30T11:05:09.079Z,3.80
2023-10-30T11:08:04.799Z,4.53
2023-10-30T11:10:56.221Z,5.68
2023-10-30T11:14:12.886Z,4.03
2023-10-30T11:17:03.157Z,5.63
2023-10-30T11:19:49.064Z,7.03
2023-10-30T11:22:42.342Z,5.78
2023-10-30T11:25:37.101Z,5.07
2023-10-30T11:28:24.682Z,4.57
2023-10-30T11:31:10.492Z,5.13
2023-10-30T11:34:15.324Z,5.78
2023-10-30T11:37:15.896Z,5.10
2023-10-30T11:40:07.745Z,6.07
2023-10-30T11:42:57.852Z,6.03
2023-10-30T11:45:44.217Z,6.95
2023-10-30T11:48:31.048Z,7.82
2023-10-30T11:51:20.263Z,7.13
2023-10-30T11:54:06.608Z,5.90
2023-10-30T11:56:53.420Z,5.90
2023-10-30T11:59:39.812Z,8.32
2023-10-30T12:02:26.205Z,6.07
2023-10-30T12:05:12.494Z,7.85
2023-10-30T12:07:59.909Z,5.78
2023-10-30T12:10:49.430Z,5.75
2023-10-30T12:13:36.089Z,6.93
2023-10-30T12:16:24.472Z,6.63
2023-10-30T12:19:11.179Z,7.07
2023-10-30T12:21:57.408Z,6.15
2023-10-30T12:24:47.654Z,7.22
2023-10-30T12:27:34.806Z,6.93
2023-10-30T12:30:21.913Z,5.60
2023-10-30T12:33:14.321Z,6.75
2023-10-30T12:36:00.677Z,5.78
2023-10-30T12:38:49.894Z,7.72
2023-10-30T12:41:36.381Z,10.35
2023-10-30T12:44:25.285Z,6.70
2023-10-30T12:47:12.562Z,6.75
2023-10-30T12:49:58.488Z,6.80
2023-10-30T12:52:44.701Z,8.07
2023-10-30T12:55:30.552Z,4.80
2023-10-30T12:58:16.749Z,6.50
2023-10-30T13:03:54.182Z,6.78
2023-10-30T13:06:40.045Z,11.00
2023-10-30T13:09:26.090Z,5.65
2023-10-30T13:12:12.072Z,4.32
2023-10-30T13:14:58.151Z,8.38
2023-10-30T13:17:44.265Z,7.25
2023-10-30T13:20:29.963Z,5.68
2023-10-30T13:23:15.541Z,5.70
2023-10-30T13:26:01.512Z,6.43
2023-10-30T13:28:46.877Z,6.13
2023-10-30T13:31:32.717Z,6.82
2023-10-30T13:34:18.354Z,6.13
2023-10-30T13:37:06.254Z,6.97
2023-10-30T13:39:52.441Z,10.40
2023-10-30T13:42:38.722Z,6.85
2023-10-30T13:45:25.496Z,4.80
2023-10-30T13:48:11.614Z,6.18
2023-10-30T13:50:59.262Z,6.70
2023-10-30T13:53:45.360Z,5.30
2023-10-30T13:56:32.181Z,7.50
2023-10-30T13:59:18.492Z,7.38
2023-10-30T14:02:04.245Z,14.38
2023-10-30T14:04:53.407Z,6.35
2023-10-30T14:07:39.399Z,6.95
2023-10-30T14:10:25.201Z,5.63
2023-10-30T14:13:10.974Z,11.07
2023-10-30T14:15:57.464Z,9.88
2023-10-30T14:18:43.268Z,7.82
2023-10-30T14:21:29.556Z,10.00
2023-10-30T14:24:15.606Z,7.05
2023-10-30T14:27:02.773Z,6.38
2023-10-30T14:29:49.070Z,10.93
2023-10-30T14:32:35.004Z,7.40
2023-10-30T14:35:21.049Z,9.20
2023-10-30T14:38:06.902Z,19.17
2023-10-30T14:40:52.877Z,46.38
2023-10-30T14:43:39.026Z,56.00
2023-10-30T14:46:26.232Z,93.38
2023-10-30T14:49:12.601Z,68.53
2023-10-30T14:52:00.264Z,55.75
2023-10-30T14:54:46.428Z,25.88
2023-10-30T14:57:32.450Z,26.50
2023-10-30T15:00:18.514Z,24.85
2023-10-30T15:03:04.471Z,21.73
2023-10-30T15:05:51.469Z,30.45
2023-10-30T15:08:37.289Z,99.88
2023-10-30T15:11:23.439Z,124.82
2023-10-30T15:14:09.766Z,58.42
2023-10-30T15:16:57.883Z,75.75
2023-10-30T15:19:43.537Z,34.10
2023-10-30T15:22:29.728Z,40.38
2023-10-30T15:25:15.676Z,70.70
2023-10-30T15:28:02.721Z,81.78
2023-10-30T15:30:52.374Z,60.83
2023-10-30T15:33:38.836Z,86.60
2023-10-30T15:36:28.233Z,89.13
2023-10-30T15:39:15.972Z,90.78
2023-10-30T15:42:02.210Z,81.07
2023-10-30T15:44:48.331Z,109.13
2023-10-30T15:47:36.265Z,127.80
2023-10-30T15:50:25.541Z,80.72
2023-10-30T15:58:48.644Z,56.42
2023-10-30T16:01:35.124Z,50.17
2023-10-30T16:04:21.404Z,50.80
2023-10-30T16:07:08.505Z,61.25
2023-10-30T16:10:11.925Z,59.40
2023-10-30T16:13:00.645Z,45.53
2023-10-30T16:15:49.713Z,43.28
2023-10-30T16:18:35.873Z,42.53
2023-10-30T16:21:23.927Z,36.25
2023-10-30T16:24:11.437Z,40.70
2023-10-30T16:26:58.197Z,37.78
2023-10-30T16:29:45.109Z,37.90
2023-10-30T16:32:30.947Z,40.08
2023-10-30T16:35:17.015Z,41.20
2023-10-30T16:38:02.697Z,232.50
2023-10-30T16:40:48.925Z,59.92
2023-10-30T16:43:34.949Z,58.22
2023-10-30T16:46:20.949Z,81.65
2023-10-30T16:49:06.853Z,77.35
2023-10-30T16:51:52.920Z,83.35
2023-10-30T16:54:38.886Z,88.93
2023-10-30T16:57:24.744Z,113.13
2023-10-30T17:00:11.230Z,135.00
2023-10-30T17:02:57.321Z,130.80
2023-10-30T17:05:43.390Z,121.75
2023-10-30T17:08:29.400Z,122.10
2023-10-30T17:11:16.465Z,127.78
2023-10-30T17:14:02.448Z,119.15
2023-10-30T17:16:48.647Z,131.55
2023-10-30T17:19:34.699Z,103.60
2023-10-30T17:22:20.719Z,112.97
2023-10-30T17:25:07.306Z,114.07
2023-10-30T17:27:53.238Z,116.55
2023-10-30T17:30:39.877Z,136.00
2023-10-30T17:33:26.324Z,232.63
2023-10-30T17:36:12.360Z,174.45
2023-10-30T17:38:58.139Z,111.20
2023-10-30T17:41:44.318Z,115.13
2023-10-30T17:44:30.199Z,147.30
2023-10-30T17:47:16.440Z,106.63
2023-10-30T17:50:02.513Z,124.50
2023-10-30T17:52:49.713Z,84.93
2023-10-30T17:55:35.810Z,84.13
2023-10-30T17:58:22.152Z,107.32
2023-10-30T18:01:15.586Z,360.50
2023-10-30T18:04:01.570Z,107.03
2023-10-30T18:06:47.411Z,104.40
2023-10-30T18:09:33.214Z,136.77
2023-10-30T18:12:18.741Z,126.85
2023-10-30T18:15:05.302Z,83.32
2023-10-30T18:17:51.449Z,171.55
2023-10-30T18:20:44.362Z,82.00
2023-10-30T18:23:32.635Z,103.53
2023-10-30T18:26:24.219Z,113.47
2023-10-30T18:29:13.614Z,79.20
2023-10-30T18:32:04.119Z,60.47
2023-10-30T18:34:49.853Z,47.70
2023-10-30T18:37:35.557Z,51.00
2023-10-30T18:40:21.267Z,45.70
2023-10-30T18:43:07.478Z,44.90
2023-10-30T18:45:53.616Z,41.33
2023-10-30T18:48:39.656Z,43.33
2023-10-30T18:51:26.644Z,43.78
2023-10-30T18:54:13.123Z,43.10
2023-10-30T18:56:59.494Z,43.03
2023-10-30T18:59:45.503Z,50.92
2023-10-30T19:02:31.475Z,36.03
2023-10-30T19:05:17.606Z,32.03
2023-10-30T19:08:04.686Z,28.75
2023-10-30T19:10:51.134Z,35.17
2023-10-30T19:13:37.267Z,23.65
2023-10-30T19:16:23.337Z,27.25
2023-10-30T19:19:09.030Z,25.90
2023-10-30T19:21:54.674Z,25.20
2023-10-30T19:24:40.331Z,25.58
2023-10-30T19:27:26.260Z,30.48
2023-10-30T19:30:12.658Z,29.83
2023-10-30T19:32:59.278Z,42.75
2023-10-30T19:35:44.794Z,70.47
2023-10-30T19:38:32.194Z,39.78
2023-10-30T19:41:17.816Z,31.05
2023-10-30T19:44:04.090Z,40.17
2023-10-30T19:46:50.359Z,33.83
2023-10-30T19:49:36.512Z,44.05
2023-10-30T19:52:21.931Z,34.40
2023-10-30T19:55:09.061Z,41.45
2023-10-30T19:57:55.042Z,34.13
2023-10-30T20:00:40.735Z,38.78
2023-10-30T20:03:26.299Z,36.65
2023-10-30T20:06:12.160Z,44.83
2023-10-30T20:08:57.545Z,28.48
2023-10-30T20:11:44.073Z,33.05
2023-10-30T20:14:29.964Z,34.60
2023-10-30T20:17:16.055Z,31.20
2023-10-30T20:20:01.873Z,29.23
2023-10-30T20:22:48.228Z,26.38
2023-10-30T20:25:33.875Z,37.72
2023-10-30T20:28:19.970Z,44.17
2023-10-30T20:31:05.953Z,36.88
2023-10-30T20:33:51.927Z,45.17
2023-10-30T20:36:38.440Z,39.83
2023-10-30T20:39:26.159Z,35.42
2023-10-30T20:42:11.881Z,38.95
2023-10-30T20:44:58.191Z,35.10
2023-10-30T20:47:44.462Z,34.80
2023-10-30T20:50:30.579Z,33.38
2023-10-30T20:53:17.741Z,33.78
2023-10-30T20:56:04.530Z,32.17
2023-10-30T20:58:50.440Z,30.52
2023-10-30T21:01:36.700Z,29.50
2023-10-30T21:04:22.866Z,54.28
2023-10-30T21:07:08.803Z,61.33
2023-10-30T21:09:55.232Z,37.47
2023-10-30T21:12:41.448Z,34.15
2023-10-30T21:15:26.971Z,36.78
2023-10-30T21:18:13.530Z,29.58
2023-10-30T21:21:00.042Z,34.60
2023-10-30T21:23:46.209Z,37.38
2023-10-30T21:26:32.500Z,33.33
2023-10-30T21:29:20.132Z,31.42
2023-10-30T21:32:06.668Z,34.53
2023-10-30T21:34:52.697Z,33.67
2023-10-30T21:37:38.996Z,32.22
2023-10-30T21:40:24.732Z,35.38
2023-10-30T21:43:10.359Z,35.20
2023-10-30T21:45:56.619Z,39.63
2023-10-30T21:48:43.753Z,35.17
2023-10-30T21:51:30.098Z,36.95
2023-10-30T21:54:16.058Z,34.17
2023-10-30T21:57:02.299Z,38.10
2023-10-30T21:59:48.223Z,35.03
2023-10-30T22:02:34.797Z,38.20
2023-10-30T22:05:22.163Z,40.60
2023-10-30T22:08:09.628Z,33.03
2023-10-30T22:10:55.309Z,36.55
2023-10-30T22:13:41.693Z,35.30
2023-10-30T22:16:27.535Z,31.05
2023-10-30T22:19:13.493Z,34.17
2023-10-30T22:21:59.239Z,30.90
2023-10-30T22:24:45.528Z,31.67
2023-10-30T22:27:32.173Z,32.33
2023-10-30T22:30:25.826Z,33.13
2023-10-30T22:33:14.528Z,31.25
2023-10-30T22:36:03.276Z,31.25
2023-10-30T22:38:49.258Z,30.80
2023-10-30T22:41:34.998Z,28.35
2023-10-30T22:44:21.124Z,29.98
2023-10-30T22:47:07.687Z,26.50
2023-10-30T22:49:53.743Z,27.17
2023-10-30T22:52:40.386Z,25.58
2023-10-30T22:55:29.229Z,24.30
2023-10-30T22:58:15.573Z,23.58
2023-10-30T23:01:01.440Z,24.67
2023-10-30T23:03:48.964Z,21.60
2023-10-30T23:06:34.835Z,26.08
2023-10-30T23:09:21.934Z,26.75
2023-10-30T23:12:07.802Z,24.48
2023-10-30T23:14:53.989Z,26.52
2023-10-30T23:17:40.028Z,24.73
2023-10-30T23:20:27.766Z,28.77
2023-10-30T23:23:13.463Z,23.70
2023-10-30T23:26:00.782Z,25.25
2023-10-30T23:28:46.823Z,24.63
2023-10-30T23:31:33.284Z,26.08
2023-10-30T23:34:19.403Z,24.33
2023-10-30T23:37:05.832Z,26.13
2023-10-30T23:39:52.210Z,24.98
2023-10-30T23:42:38.185Z,22.33
2023-10-30T23:45:25.014Z,26.85
2023-10-30T23:48:14.002Z,24.83
2023-10-30T23:51:00.263Z,23.25
2023-10-30T23:53:46.016Z,27.73
2023-10-30T23:56:31.851Z,21.05
2023-10-30T23:59:17.834Z,23.02
